Airfield :
LOGIN :

Register | Disclaimer

   EN    FR    IT 

 










Legend :    VFR   Marginal VFR   IFR   Intensive IFR   Very Intensive IFR
Visi :
Ceiling :
>= 8 km
>= 3000ft
5 to 8 km
1000 to 3000 ft
1500m to 5 km
500 to 1000 ft
800 to 1500m
200 to 500 ft
< 800m
< 200 ft
Symbols :   Thunderstorms  Fog  Heavy snow  Heavy precipitations  Wind > 20 kt
SIGMETs :     Misc.  Thunderstorms  Icing  Turbulence  Mountain Waves  Volcanic Ashes







- Airport Elevation : 628 ft
- IATA code : PNL


LICG - Pantelleria

CURRENT METAR :
  • 181655Z 17006KT 9999 SCT020 11/09 Q1023 RMK SCT SCT060 VIS MIN 9999 WIND THR08 15006KT WIND THR21 15005KT BLU

EXPIRED METARs :
  • 181555Z 18010KT 9999 FEW015 SCT020 12/10 Q1023
  • 181455Z 20011KT 9999 FEW015 SCT025 13/10 Q1023 RMK BKN VIS MIN 9999 WIND THR08 18013KT WIND THR21 17012KT BLU

TAF TAF LICG
Valid from the 18 at 18:00 until the 19 at 03:00 UTC


181700Z 1818/1903 16008KT 9999 SCT020
No reported NOTAMs for that airfield.
1 SIGMET reported for the Roma FIR (LIRR) :
 
Volcanic ashes
LIRR SIGMET 10 VALID 181402/182000 LIIB
LIRR ROMA FIR VA ERUPTION MT ETNA PSN N3744 E01500 VA CLD OBS AT 1400Z WI N3740 E01500 - N3819 E01315 - N3845 E01325 - N3755 E01500 - N3740 E01500 MOV WNW 10KT SFC/FL140 NC=



MET'MAP, your aeronautical weather chart ! - Copyright ORBIFLY December 2007 - Disclaimer

ORBIFLY MET'MAP TEAM :

Programming & Development : Alexandra Zaïnal
Concept & Development : Baudouin d'Aumeries
Co-Development & Prog : Marc-Olivier Méhu
Technical & hardware support : Manuel Goepfert

Contact : metmap@orbifly.com




SOURCES & CREDITS :

   NOAA